createdAt,value
2019-05-22T00:02:13.847Z,99.90
2019-05-22T00:04:53.975Z,99.90
2019-05-22T00:07:27.235Z,99.90
2019-05-22T00:09:58.891Z,99.90
2019-05-22T00:12:45.655Z,99.90
2019-05-22T00:15:08.639Z,99.90
2019-05-22T00:17:42.691Z,99.90
2019-05-22T00:20:24.815Z,99.90
2019-05-22T00:22:58.632Z,99.90
2019-05-22T00:25:34.119Z,99.90
2019-05-22T00:28:08.778Z,99.90
2019-05-22T00:30:44.608Z,99.90
2019-05-22T00:33:17.953Z,99.90
2019-05-22T00:35:51.267Z,99.90
2019-05-22T00:38:23.251Z,99.90
2019-05-22T00:41:00.584Z,99.90
2019-05-22T00:43:33.059Z,99.90
2019-05-22T00:46:08.892Z,99.90
2019-05-22T00:48:42.738Z,99.90
2019-05-22T00:51:23.842Z,99.90
2019-05-22T00:54:05.703Z,99.90
2019-05-22T00:56:42.880Z,99.90
2019-05-22T00:59:22.195Z,99.90
2019-05-22T01:01:59.499Z,99.90
2019-05-22T01:04:41.416Z,99.90
2019-05-22T01:07:19.634Z,99.90
2019-05-22T01:10:00.960Z,99.90
2019-05-22T01:12:40.199Z,99.90
2019-05-22T01:15:15.686Z,99.90
2019-05-22T01:17:50.384Z,99.90
2019-05-22T01:20:28.145Z,99.90
2019-05-22T01:23:03.755Z,99.90
2019-05-22T01:25:37.864Z,99.90
2019-05-22T01:28:15.611Z,99.90
2019-05-22T01:30:59.810Z,99.90
2019-05-22T01:33:37.242Z,99.90
2019-05-22T01:36:18.191Z,99.90
2019-05-22T01:38:52.629Z,99.90
2019-05-22T01:41:31.171Z,99.90
2019-05-22T01:44:06.424Z,99.90
2019-05-22T01:46:42.275Z,99.90
2019-05-22T01:49:17.767Z,99.90
2019-05-22T01:51:52.094Z,99.90
2019-05-22T01:54:27.679Z,99.90
2019-05-22T01:57:10.022Z,99.90
2019-05-22T01:59:42.751Z,99.90
2019-05-22T02:02:18.754Z,99.90
2019-05-22T02:04:55.905Z,99.90
2019-05-22T02:07:30.025Z,99.90
2019-05-22T02:10:05.577Z,99.90
2019-05-22T02:12:51.633Z,99.90
2019-05-22T02:15:23.783Z,99.90
2019-05-22T02:17:58.083Z,99.90
2019-05-22T02:20:31.903Z,99.90
2019-05-22T02:23:07.679Z,99.90
2019-05-22T02:25:41.503Z,99.90
2019-05-22T02:28:13.923Z,99.90
2019-05-22T02:30:50.723Z,99.90
2019-05-22T02:33:24.600Z,99.90
2019-05-22T02:35:55.783Z,99.90
2019-05-22T02:38:29.505Z,99.90
2019-05-22T02:41:08.901Z,99.90
2019-05-22T02:43:39.522Z,99.90
2019-05-22T02:46:17.195Z,99.90
2019-05-22T02:48:56.071Z,99.90
2019-05-22T02:51:28.485Z,99.90
2019-05-22T02:54:03.170Z,99.90
2019-05-22T02:56:55.188Z,99.90
2019-05-22T02:59:30.177Z,99.90
2019-05-22T03:02:04.644Z,99.90
2019-05-22T03:04:59.297Z,99.90
2019-05-22T03:07:34.496Z,99.90
2019-05-22T03:10:07.520Z,99.90
2019-05-22T03:12:42.406Z,99.90
2019-05-22T03:15:19.745Z,99.90
2019-05-22T03:18:03.356Z,99.90
2019-05-22T03:20:47.750Z,99.90
2019-05-22T03:24:01.516Z,99.90
2019-05-22T03:26:45.760Z,99.90
2019-05-22T03:29:23.340Z,99.90
2019-05-22T03:32:01.152Z,99.90
2019-05-22T03:34:40.096Z,99.90
2019-05-22T03:37:11.845Z,99.90
2019-05-22T03:39:47.459Z,99.90
2019-05-22T03:42:22.987Z,99.90
2019-05-22T03:44:56.664Z,99.90
2019-05-22T03:47:40.031Z,99.90
2019-05-22T03:50:38.880Z,99.90
2019-05-22T03:53:21.776Z,99.90
2019-05-22T03:55:55.813Z,99.90
2019-05-22T03:58:27.643Z,99.90
2019-05-22T04:01:01.285Z,99.90
2019-05-22T04:03:35.965Z,99.90
2019-05-22T04:06:11.551Z,99.90
2019-05-22T04:08:47.199Z,99.90
2019-05-22T04:11:20.643Z,99.90
2019-05-22T04:13:56.264Z,99.90
2019-05-22T04:16:31.552Z,99.90
2019-05-22T04:19:09.728Z,99.90
2019-05-22T04:21:44.031Z,99.90
2019-05-22T04:24:16.589Z,99.90
2019-05-22T04:26:50.648Z,99.90
2019-05-22T04:29:24.908Z,99.90
2019-05-22T04:32:25.178Z,99.90
2019-05-22T04:34:59.279Z,99.90
2019-05-22T04:37:32.778Z,99.90
2019-05-22T04:40:54.888Z,99.90
2019-05-22T04:44:03.698Z,99.90
2019-05-22T04:46:37.922Z,99.90
2019-05-22T04:49:11.680Z,99.90
2019-05-22T04:51:45.701Z,99.90
2019-05-22T04:54:19.044Z,99.90
2019-05-22T04:56:53.163Z,99.90
2019-05-22T04:59:24.475Z,99.90
2019-05-22T05:01:55.261Z,99.90
2019-05-22T05:04:29.068Z,99.90
2019-05-22T05:07:04.769Z,99.90
2019-05-22T05:09:39.436Z,99.90
2019-05-22T05:12:12.803Z,99.90
2019-05-22T05:14:45.891Z,99.90
2019-05-22T05:17:20.447Z,99.90
2019-05-22T05:19:56.231Z,99.90
2019-05-22T05:22:43.901Z,99.90
2019-05-22T05:25:14.750Z,99.90
2019-05-22T05:27:47.522Z,99.90
2019-05-22T05:30:19.484Z,99.90
2019-05-22T05:32:51.621Z,99.90
2019-05-22T05:35:37.832Z,99.90
2019-05-22T05:38:21.400Z,99.90
2019-05-22T05:41:10.560Z,99.90
2019-05-22T05:43:42.427Z,99.90
2019-05-22T05:46:13.614Z,99.90
2019-05-22T05:48:47.905Z,99.90
2019-05-22T05:51:28.234Z,99.90
2019-05-22T05:54:08.907Z,99.90
2019-05-22T05:56:43.524Z,99.90
2019-05-22T05:59:52.643Z,99.90
2019-05-22T06:03:04.996Z,99.90
2019-05-22T06:05:43.745Z,99.90
2019-05-22T06:08:35.456Z,99.90
2019-05-22T06:11:46.286Z,99.90
2019-05-22T06:14:24.421Z,99.90
2019-05-22T06:17:54.103Z,99.90
2019-05-22T06:20:42.977Z,99.90
2019-05-22T06:23:53.059Z,99.90
2019-05-22T06:26:54.402Z,99.90
2019-05-22T06:29:33.767Z,99.90
2019-05-22T06:33:04.961Z,99.90
2019-05-22T06:35:43.071Z,99.90
2019-05-22T06:38:56.809Z,99.90
2019-05-22T06:41:42.214Z,99.90
2019-05-22T06:44:44.794Z,99.90
2019-05-22T06:47:38.087Z,99.90
2019-05-22T06:50:49.647Z,99.90
2019-05-22T06:53:58.667Z,99.90
2019-05-22T06:56:31.723Z,99.90
2019-05-22T06:59:03.349Z,99.90
2019-05-22T07:01:37.411Z,99.90
2019-05-22T07:04:10.630Z,99.90
2019-05-22T07:06:45.453Z,99.90
2019-05-22T07:09:20.159Z,99.90
2019-05-22T07:11:56.485Z,99.90
2019-05-22T07:14:32.543Z,99.90
2019-05-22T07:17:03.093Z,99.90
2019-05-22T07:19:42.845Z,99.90
2019-05-22T07:22:16.575Z,99.90
2019-05-22T07:24:49.612Z,99.90
2019-05-22T07:27:28.203Z,99.90
2019-05-22T07:29:58.731Z,99.90
2019-05-22T07:32:31.162Z,99.90
2019-05-22T07:35:08.495Z,99.90
2019-05-22T07:37:47.387Z,99.90
2019-05-22T07:40:22.474Z,99.90
2019-05-22T07:42:53.431Z,99.90
2019-05-22T07:45:27.887Z,99.90
2019-05-22T07:48:02.629Z,99.90
2019-05-22T07:50:37.124Z,99.90
2019-05-22T07:53:11.562Z,99.90
2019-05-22T07:55:46.339Z,99.90
2019-05-22T07:58:20.281Z,99.90
2019-05-22T08:00:54.084Z,99.90
2019-05-22T08:03:30.179Z,99.90
2019-05-22T08:06:03.538Z,99.90
2019-05-22T08:08:40.287Z,99.90
2019-05-22T08:11:16.202Z,99.90
2019-05-22T08:13:51.205Z,99.90
2019-05-22T08:16:25.284Z,99.90
2019-05-22T08:19:01.237Z,99.90
2019-05-22T08:21:32.241Z,99.90
2019-05-22T08:24:10.819Z,99.90
2019-05-22T08:26:53.857Z,99.90
2019-05-22T08:29:21.217Z,99.90
2019-05-22T08:31:54.212Z,99.90
2019-05-22T08:34:27.235Z,99.90
2019-05-22T08:37:00.838Z,99.90
2019-05-22T08:39:32.127Z,99.90
2019-05-22T08:42:09.037Z,99.90
2019-05-22T08:44:42.261Z,99.90
2019-05-22T08:47:16.033Z,99.90
2019-05-22T08:49:50.895Z,99.90
2019-05-22T08:52:25.604Z,99.90
2019-05-22T08:55:01.183Z,99.90
2019-05-22T08:57:35.277Z,99.90
2019-05-22T09:00:08.847Z,99.90
2019-05-22T09:02:44.015Z,99.90
2019-05-22T09:05:20.987Z,99.90
2019-05-22T09:07:51.871Z,99.90
2019-05-22T09:10:27.619Z,99.90
2019-05-22T09:13:01.417Z,99.90
2019-05-22T09:15:39.558Z,99.90
2019-05-22T09:18:13.642Z,99.90
2019-05-22T09:20:49.211Z,99.90
2019-05-22T09:23:20.318Z,99.90
2019-05-22T09:25:54.549Z,99.90
2019-05-22T09:28:29.888Z,99.90
2019-05-22T09:31:01.276Z,99.90
2019-05-22T09:33:34.975Z,99.90
2019-05-22T09:36:10.344Z,99.90
2019-05-22T09:38:43.751Z,99.90
2019-05-22T09:41:17.376Z,99.90
2019-05-22T09:43:51.903Z,99.90
2019-05-22T09:46:24.835Z,99.90
2019-05-22T09:48:58.792Z,99.90
2019-05-22T09:51:33.344Z,99.90
2019-05-22T09:54:06.335Z,99.90
2019-05-22T09:56:39.903Z,99.90
2019-05-22T09:59:12.574Z,99.90
2019-05-22T10:01:48.771Z,99.90
2019-05-22T10:04:23.719Z,99.90
2019-05-22T10:06:56.100Z,99.90
2019-05-22T10:09:32.005Z,99.90
2019-05-22T10:12:02.860Z,99.90
2019-05-22T10:14:36.300Z,99.90
2019-05-22T10:17:07.651Z,99.90
2019-05-22T10:19:39.431Z,99.90
2019-05-22T10:22:13.671Z,99.90
2019-05-22T10:24:50.093Z,99.90
2019-05-22T10:27:24.771Z,99.90
2019-05-22T10:30:00.712Z,99.90
2019-05-22T10:32:35.800Z,99.90
2019-05-22T10:35:07.220Z,99.90
2019-05-22T10:37:36.962Z,99.90
2019-05-22T10:40:13.248Z,99.90
2019-05-22T10:42:48.228Z,99.90
2019-05-22T10:45:20.616Z,99.90
2019-05-22T10:47:53.615Z,99.90
2019-05-22T10:50:30.564Z,99.90
2019-05-22T10:53:04.227Z,99.90
2019-05-22T10:55:42.401Z,99.90
2019-05-22T10:58:17.648Z,99.90
2019-05-22T11:00:52.386Z,99.90
2019-05-22T11:03:24.510Z,99.90
2019-05-22T11:06:06.644Z,99.90
2019-05-22T11:08:31.865Z,99.90
2019-05-22T11:11:00.615Z,99.90
2019-05-22T11:13:34.237Z,99.90
2019-05-22T11:16:10.754Z,99.90
2019-05-22T11:18:46.177Z,99.90
2019-05-22T11:21:18.124Z,99.90
2019-05-22T11:23:52.863Z,99.90
2019-05-22T11:26:23.143Z,99.90
2019-05-22T11:28:55.967Z,99.90
2019-05-22T11:31:27.963Z,99.90
2019-05-22T11:33:58.264Z,99.90
2019-05-22T11:36:29.184Z,99.90
2019-05-22T11:39:00.885Z,99.90
2019-05-22T11:41:35.516Z,99.90
2019-05-22T11:44:08.071Z,99.90
2019-05-22T11:46:43.011Z,99.90
2019-05-22T11:49:16.937Z,99.90
2019-05-22T11:51:51.778Z,99.90
2019-05-22T11:54:28.161Z,99.90
2019-05-22T11:57:03.784Z,99.90
2019-05-22T11:59:38.690Z,99.90
2019-05-22T12:02:14.819Z,99.90
2019-05-22T12:04:49.248Z,99.80
2019-05-22T12:07:23.999Z,99.10
2019-05-22T12:09:59.123Z,99.40
2019-05-22T12:12:29.700Z,99.40
2019-05-22T12:15:00.277Z,98.00
2019-05-22T12:17:38.604Z,97.80
2019-05-22T12:20:13.484Z,97.30
2019-05-22T12:22:47.876Z,97.40
2019-05-22T12:25:23.466Z,96.90
2019-05-22T12:27:59.712Z,96.50
2019-05-22T12:30:39.808Z,96.10
2019-05-22T12:33:15.593Z,96.30
2019-05-22T12:35:49.122Z,96.40
2019-05-22T12:38:26.731Z,96.10
2019-05-22T12:41:01.996Z,95.70
2019-05-22T12:43:36.670Z,95.00
2019-05-22T12:46:09.995Z,94.90
2019-05-22T12:48:46.416Z,94.80
2019-05-22T12:51:22.240Z,94.60
2019-05-22T12:53:55.792Z,94.40
2019-05-22T12:56:28.067Z,94.50
2019-05-22T12:59:02.440Z,94.60
2019-05-22T13:01:37.256Z,94.50
2019-05-22T13:04:13.195Z,94.50
2019-05-22T13:06:48.340Z,93.40
2019-05-22T13:09:20.616Z,93.50
2019-05-22T13:11:51.030Z,93.70
2019-05-22T13:14:21.103Z,92.50
2019-05-22T13:16:53.710Z,92.20
2019-05-22T13:19:27.623Z,92.50
2019-05-22T13:22:03.232Z,92.60
2019-05-22T13:24:36.480Z,92.60
2019-05-22T13:27:12.127Z,92.20
2019-05-22T13:29:45.027Z,91.80
2019-05-22T13:32:20.932Z,91.90
2019-05-22T13:34:55.824Z,92.60
2019-05-22T13:37:29.552Z,92.40
2019-05-22T13:40:06.188Z,93.00
2019-05-22T13:42:41.663Z,92.30
2019-05-22T13:45:28.723Z,91.90
2019-05-22T13:47:50.813Z,91.60
2019-05-22T13:50:28.870Z,91.60
2019-05-22T13:53:03.474Z,91.90
2019-05-22T13:55:36.547Z,92.00
2019-05-22T13:58:11.839Z,91.70
2019-05-22T14:00:45.863Z,90.90
2019-05-22T14:03:20.137Z,91.20
2019-05-22T14:05:53.088Z,91.00
2019-05-22T14:08:26.565Z,90.70
2019-05-22T14:11:01.575Z,90.40
2019-05-22T14:13:36.553Z,90.50
2019-05-22T14:16:08.512Z,90.60
2019-05-22T14:18:40.784Z,90.90
2019-05-22T14:21:11.582Z,91.30
2019-05-22T14:23:49.351Z,91.50
2019-05-22T14:26:23.217Z,91.30
2019-05-22T14:28:56.269Z,91.20
2019-05-22T14:31:30.531Z,91.00
2019-05-22T14:34:06.917Z,91.20
2019-05-22T14:36:40.834Z,91.10
2019-05-22T14:39:12.803Z,91.30
2019-05-22T14:41:43.024Z,91.70
2019-05-22T14:44:13.662Z,91.50
2019-05-22T14:46:46.607Z,90.70
2019-05-22T14:49:20.796Z,91.20
2019-05-22T14:51:54.793Z,91.20
2019-05-22T14:54:31.141Z,91.60
2019-05-22T14:57:05.699Z,91.10
2019-05-22T14:59:35.525Z,91.30
2019-05-22T15:02:08.643Z,91.90
2019-05-22T15:04:44.546Z,92.00
2019-05-22T15:07:18.554Z,92.50
2019-05-22T15:09:54.210Z,92.90
2019-05-22T15:12:26.923Z,93.10
2019-05-22T15:14:59.239Z,93.70
2019-05-22T15:17:33.575Z,93.40
2019-05-22T15:20:08.012Z,93.40
2019-05-22T15:22:42.687Z,94.20
2019-05-22T15:25:16.727Z,94.40
2019-05-22T15:27:50.699Z,94.20
2019-05-22T15:30:21.835Z,94.70
2019-05-22T15:32:52.041Z,94.70
2019-05-22T15:35:24.864Z,94.80
2019-05-22T15:38:00.763Z,95.20
2019-05-22T15:40:36.083Z,95.40
2019-05-22T15:43:10.253Z,95.20
2019-05-22T15:45:45.282Z,95.20
2019-05-22T15:48:28.768Z,95.20
2019-05-22T15:51:06.204Z,95.10
2019-05-22T15:53:42.367Z,95.40
2019-05-22T15:56:18.434Z,95.20
2019-05-22T15:58:55.410Z,95.20
2019-05-22T16:01:31.400Z,95.00
2019-05-22T16:04:08.483Z,94.60
2019-05-22T16:06:42.643Z,93.50
2019-05-22T16:09:19.215Z,91.70
2019-05-22T16:11:55.208Z,90.90
2019-05-22T16:14:30.743Z,87.20
2019-05-22T16:17:06.317Z,87.70
2019-05-22T16:19:40.867Z,84.40
2019-05-22T16:22:14.833Z,80.10
2019-05-22T16:24:48.573Z,80.10
2019-05-22T16:27:21.600Z,80.00
2019-05-22T16:29:55.473Z,78.40
2019-05-22T16:32:34.208Z,77.20
2019-05-22T16:35:09.041Z,77.60
2019-05-22T16:37:43.084Z,77.40
2019-05-22T16:40:18.655Z,77.20
2019-05-22T16:42:52.881Z,77.60
2019-05-22T16:45:29.676Z,75.70
2019-05-22T16:48:04.235Z,74.70
2019-05-22T16:50:39.779Z,72.50
2019-05-22T16:53:19.711Z,72.00
2019-05-22T16:55:53.415Z,72.30
2019-05-22T16:58:26.393Z,72.30
2019-05-22T17:01:00.132Z,72.10
2019-05-22T17:03:36.735Z,73.20
2019-05-22T17:06:07.260Z,72.10
2019-05-22T17:08:44.450Z,71.10
2019-05-22T17:11:19.656Z,71.20
2019-05-22T17:13:53.422Z,69.10
2019-05-22T17:16:27.552Z,68.70
2019-05-22T17:19:03.554Z,68.30
2019-05-22T17:21:36.515Z,68.20
2019-05-22T17:24:23.123Z,68.00
2019-05-22T17:26:59.511Z,68.50
2019-05-22T17:29:40.870Z,68.20
2019-05-22T17:32:16.519Z,69.10
2019-05-22T17:34:46.791Z,69.50
2019-05-22T17:37:23.059Z,68.90
2019-05-22T17:39:57.693Z,69.30
2019-05-22T17:42:28.985Z,69.60
2019-05-22T17:45:03.491Z,70.20
2019-05-22T17:47:57.267Z,70.30
2019-05-22T17:50:49.343Z,70.30
2019-05-22T17:53:34.512Z,71.10
2019-05-22T17:56:22.211Z,71.60
2019-05-22T17:58:53.929Z,71.20
2019-05-22T18:01:34.659Z,71.60
2019-05-22T18:04:13.755Z,73.10
2019-05-22T18:06:55.051Z,74.90
2019-05-22T18:09:29.423Z,76.70
2019-05-22T18:12:08.227Z,78.10
2019-05-22T18:14:45.321Z,79.00
2019-05-22T18:17:19.564Z,80.00
2019-05-22T18:19:53.592Z,81.00
2019-05-22T18:22:26.403Z,81.90
2019-05-22T18:24:58.473Z,82.80
2019-05-22T18:27:32.436Z,83.80
2019-05-22T18:30:05.268Z,84.70
2019-05-22T18:32:43.433Z,84.90
2019-05-22T18:35:17.220Z,85.60
2019-05-22T18:37:53.007Z,86.80
2019-05-22T18:40:26.015Z,87.40
2019-05-22T18:43:00.032Z,88.00
2019-05-22T18:45:35.575Z,88.30
2019-05-22T18:48:09.080Z,89.10
2019-05-22T18:50:40.195Z,87.80
2019-05-22T18:53:15.231Z,87.90
2019-05-22T18:55:44.734Z,88.80
2019-05-22T18:58:15.294Z,89.20
2019-05-22T19:00:50.383Z,89.60
2019-05-22T19:03:23.672Z,90.10
2019-05-22T19:05:57.452Z,90.20
2019-05-22T19:08:32.115Z,90.40
2019-05-22T19:11:04.529Z,90.70
2019-05-22T19:13:39.717Z,90.90
2019-05-22T19:16:14.691Z,91.20
2019-05-22T19:18:47.543Z,91.30
2019-05-22T19:21:22.421Z,91.30
2019-05-22T19:23:53.931Z,91.40
2019-05-22T19:26:29.379Z,91.50
2019-05-22T19:29:01.203Z,91.50
2019-05-22T19:31:31.884Z,91.90
2019-05-22T19:34:05.626Z,92.30
2019-05-22T19:36:36.265Z,92.40
2019-05-22T19:39:17.569Z,92.90
2019-05-22T19:42:01.961Z,93.40
2019-05-22T19:44:27.631Z,93.50
2019-05-22T19:47:01.507Z,93.90
2019-05-22T19:49:37.380Z,94.20
2019-05-22T19:52:10.827Z,94.80
2019-05-22T19:54:43.947Z,95.00
2019-05-22T19:57:18.071Z,95.30
2019-05-22T19:59:52.071Z,95.80
2019-05-22T20:02:29.408Z,96.20
2019-05-22T20:05:02.143Z,96.60
2019-05-22T20:07:35.143Z,97.20
2019-05-22T20:10:10.664Z,97.60
2019-05-22T20:12:45.471Z,98.20
2019-05-22T20:15:19.295Z,98.70
2019-05-22T20:17:51.895Z,99.40
2019-05-22T20:20:27.556Z,99.90
2019-05-22T20:23:02.529Z,99.90
2019-05-22T20:25:41.358Z,99.90
2019-05-22T20:28:12.602Z,99.90
2019-05-22T20:30:42.526Z,99.90
2019-05-22T20:33:17.088Z,99.90
2019-05-22T20:35:52.111Z,99.90
2019-05-22T20:38:25.260Z,99.90
2019-05-22T20:40:55.743Z,99.90
2019-05-22T20:43:31.587Z,99.90
2019-05-22T20:46:07.417Z,99.90
2019-05-22T20:48:42.241Z,99.90
2019-05-22T20:51:14.603Z,99.90
2019-05-22T20:53:54.110Z,99.90
2019-05-22T20:56:27.841Z,99.90
2019-05-22T20:59:02.239Z,99.90
2019-05-22T21:01:38.816Z,99.90
2019-05-22T21:04:18.048Z,99.90
2019-05-22T21:07:03.903Z,99.90
2019-05-22T21:09:44.864Z,99.90
2019-05-22T21:12:19.262Z,99.90
2019-05-22T21:14:52.519Z,99.90
2019-05-22T21:17:26.912Z,99.90
2019-05-22T21:20:02.320Z,99.90
2019-05-22T21:22:33.071Z,99.90
2019-05-22T21:25:08.255Z,99.90
2019-05-22T21:27:40.938Z,99.90
2019-05-22T21:30:17.828Z,99.90
2019-05-22T21:32:52.910Z,99.90
2019-05-22T21:35:26.726Z,99.90
2019-05-22T21:37:59.139Z,99.90
2019-05-22T21:40:34.795Z,99.90
2019-05-22T21:43:09.584Z,99.90
2019-05-22T21:45:43.592Z,99.90
2019-05-22T21:48:15.692Z,99.90
2019-05-22T21:50:48.778Z,99.90
2019-05-22T21:53:22.751Z,99.90
2019-05-22T21:56:04.952Z,99.90
2019-05-22T21:58:34.975Z,99.90
2019-05-22T22:01:37.810Z,99.90
2019-05-22T22:04:23.300Z,99.90
2019-05-22T22:07:00.645Z,99.90
2019-05-22T22:09:35.203Z,99.90
2019-05-22T22:12:10.018Z,99.90
2019-05-22T22:14:42.115Z,99.90
2019-05-22T22:17:18.460Z,99.90
2019-05-22T22:19:54.028Z,99.90
2019-05-22T22:22:29.755Z,99.90
2019-05-22T22:25:03.294Z,99.90
2019-05-22T22:27:40.143Z,99.90
2019-05-22T22:30:28.201Z,99.90
2019-05-22T22:33:05.544Z,99.90
2019-05-22T22:35:38.856Z,99.90
2019-05-22T22:38:14.480Z,99.90
2019-05-22T22:40:48.361Z,99.90
2019-05-22T22:43:26.655Z,99.90
2019-05-22T22:46:09.597Z,99.90
2019-05-22T22:48:46.603Z,99.90
2019-05-22T22:51:20.799Z,99.90
2019-05-22T22:53:53.628Z,99.90
2019-05-22T22:56:27.168Z,99.90
2019-05-22T22:59:01.064Z,99.90
2019-05-22T23:01:36.617Z,99.90
2019-05-22T23:04:13.792Z,99.90
2019-05-22T23:06:52.907Z,99.90
2019-05-22T23:09:28.679Z,99.90
2019-05-22T23:12:02.556Z,99.90
2019-05-22T23:14:34.862Z,99.90
2019-05-22T23:17:10.335Z,99.90
2019-05-22T23:19:49.652Z,99.90
2019-05-22T23:22:25.040Z,99.90
2019-05-22T23:25:01.462Z,99.90
2019-05-22T23:27:33.855Z,99.90
2019-05-22T23:30:05.582Z,99.90
2019-05-22T23:32:56.355Z,99.90
2019-05-22T23:35:31.975Z,99.90
2019-05-22T23:38:03.967Z,99.90
2019-05-22T23:40:38.530Z,99.90
2019-05-22T23:43:12.015Z,99.90
2019-05-22T23:45:42.907Z,99.90
2019-05-22T23:48:17.735Z,99.90
2019-05-22T23:50:51.319Z,99.90
2019-05-22T23:53:25.667Z,99.90
2019-05-22T23:56:01.936Z,99.90
2019-05-22T23:58:49.832Z,99.90
